createdAt,value
2022-12-23T00:04:08.668Z,6.48
2022-12-23T00:09:11.776Z,6.53
2022-12-23T00:14:33.554Z,6.53
2022-12-23T00:19:36.786Z,6.51
2022-12-23T00:24:40.033Z,6.51
2022-12-23T00:29:43.859Z,6.53
2022-12-23T00:34:46.970Z,6.58
2022-12-23T00:40:09.137Z,6.59
2022-12-23T00:45:18.173Z,6.57
2022-12-23T00:50:21.243Z,6.54
2022-12-23T00:55:24.963Z,6.55
2022-12-23T01:00:57.395Z,6.61
2022-12-23T01:06:02.136Z,6.65
2022-12-23T01:11:07.474Z,6.65
2022-12-23T01:16:16.870Z,6.64
2022-12-23T01:21:21.115Z,6.62
2022-12-23T01:26:24.398Z,6.60
2022-12-23T01:31:28.363Z,6.60
2022-12-23T01:36:31.730Z,6.58
2022-12-23T01:41:54.092Z,6.61
2022-12-23T01:46:57.369Z,6.64
2022-12-23T01:52:00.696Z,6.68
2022-12-23T01:57:04.178Z,6.67
2022-12-23T02:02:26.685Z,6.68
2022-12-23T02:07:49.425Z,6.69
2022-12-23T02:13:15.102Z,6.73
2022-12-23T02:18:40.464Z,6.76
2022-12-23T02:24:03.976Z,6.76
2022-12-23T02:29:19.282Z,6.76
2022-12-23T02:34:34.752Z,6.76
2022-12-23T02:39:51.840Z,6.84
2022-12-23T02:45:12.643Z,6.87
2022-12-23T02:50:21.748Z,6.84
2022-12-23T02:55:33.790Z,6.85
2022-12-23T03:00:40.469Z,6.90
2022-12-23T03:05:46.741Z,6.95
2022-12-23T03:10:52.915Z,7.01
2022-12-23T03:16:13.574Z,7.02
2022-12-23T03:21:44.686Z,6.97
2022-12-23T03:26:50.984Z,6.99
2022-12-23T03:31:58.554Z,7.05
2022-12-23T03:37:07.270Z,7.03
2022-12-23T03:42:39.084Z,7.01
2022-12-23T03:47:57.823Z,7.08
2022-12-23T03:53:16.955Z,7.16
2022-12-23T03:58:52.361Z,7.21
2022-12-23T04:04:23.626Z,7.23
2022-12-23T04:09:28.866Z,7.23
2022-12-23T04:14:35.451Z,7.29
2022-12-23T04:19:38.623Z,7.28
2022-12-23T04:24:42.216Z,7.23
2022-12-23T04:29:45.440Z,7.22
2022-12-23T04:34:48.530Z,7.17
2022-12-23T04:39:51.687Z,7.16
2022-12-23T04:44:54.862Z,7.11
2022-12-23T04:49:58.013Z,7.04
2022-12-23T04:55:01.207Z,7.00
2022-12-23T05:00:05.478Z,7.00
2022-12-23T05:05:08.766Z,7.01
2022-12-23T05:10:12.019Z,6.96
2022-12-23T05:15:15.167Z,6.95
2022-12-23T05:20:18.268Z,6.96
2022-12-23T05:25:21.408Z,7.00
2022-12-23T05:30:24.443Z,6.91
2022-12-23T05:35:28.267Z,6.82
2022-12-23T05:40:31.779Z,6.69
2022-12-23T05:45:36.943Z,6.65
2022-12-23T05:50:40.995Z,6.72
2022-12-23T05:55:44.131Z,6.59
2022-12-23T06:00:47.337Z,6.47
2022-12-23T06:05:52.210Z,6.39
2022-12-23T06:10:55.459Z,6.33
2022-12-23T06:15:58.580Z,6.34
2022-12-23T06:21:01.686Z,6.28
2022-12-23T06:26:05.073Z,6.18
2022-12-23T06:31:08.203Z,6.09
2022-12-23T06:36:11.359Z,6.04
2022-12-23T06:41:14.580Z,6.02
2022-12-23T06:46:17.965Z,5.97
2022-12-23T06:51:21.831Z,5.85
2022-12-23T06:56:24.992Z,5.76
2022-12-23T07:01:28.236Z,5.77
2022-12-23T07:06:31.677Z,5.82
2022-12-23T07:11:34.974Z,5.85
2022-12-23T07:16:38.168Z,5.87
2022-12-23T07:21:41.379Z,5.87
2022-12-23T07:26:44.704Z,5.92
2022-12-23T07:31:47.835Z,5.97
2022-12-23T07:36:51.104Z,6.00
2022-12-23T07:42:16.522Z,6.07
2022-12-23T07:47:17.526Z,6.10
2022-12-23T07:52:20.842Z,6.13
2022-12-23T07:57:24.521Z,6.15
2022-12-23T08:02:27.912Z,6.16
2022-12-23T08:07:31.454Z,6.15
2022-12-23T08:12:34.698Z,6.17
2022-12-23T08:17:37.790Z,6.20
2022-12-23T08:22:40.984Z,6.21
2022-12-23T08:27:44.049Z,6.25
2022-12-23T08:32:47.364Z,6.35
2022-12-23T08:37:50.550Z,6.48
2022-12-23T08:42:53.608Z,6.62
2022-12-23T08:47:57.030Z,6.74
2022-12-23T08:53:00.163Z,6.81
2022-12-23T08:58:03.377Z,6.87
2022-12-23T09:03:07.534Z,6.99
2022-12-23T09:08:10.843Z,7.09
2022-12-23T09:13:22.306Z,7.10
2022-12-23T09:18:29.588Z,7.09
2022-12-23T09:23:33.450Z,7.11
2022-12-23T09:28:37.290Z,7.17
2022-12-23T09:33:40.568Z,7.28
2022-12-23T09:38:44.618Z,7.37
2022-12-23T09:44:10.364Z,7.41
2022-12-23T09:49:17.690Z,7.42
2022-12-23T09:54:29.594Z,7.44
2022-12-23T09:59:35.893Z,7.46
2022-12-23T10:04:44.880Z,7.49
2022-12-23T10:09:51.846Z,7.48
2022-12-23T10:14:58.773Z,7.44
2022-12-23T10:20:07.225Z,7.43
2022-12-23T10:25:37.502Z,7.38
2022-12-23T10:31:05.903Z,7.33
2022-12-23T10:36:23.780Z,7.31
2022-12-23T10:41:42.197Z,7.35
2022-12-23T10:47:03.698Z,7.41
2022-12-23T10:52:18.360Z,7.37
2022-12-23T10:57:23.603Z,7.35
2022-12-23T11:02:46.010Z,7.31
2022-12-23T11:07:49.450Z,7.33
2022-12-23T11:12:54.494Z,7.35
2022-12-23T11:18:17.478Z,7.37
2022-12-23T11:23:23.680Z,7.37
2022-12-23T11:28:27.357Z,7.34
2022-12-23T11:33:34.426Z,7.28
2022-12-23T11:38:47.502Z,7.24
2022-12-23T11:44:16.125Z,7.22
2022-12-23T11:49:23.941Z,7.24
2022-12-23T11:54:27.629Z,7.25
2022-12-23T11:59:38.633Z,7.26
2022-12-23T12:04:42.858Z,7.24
2022-12-23T12:09:46.094Z,7.25
2022-12-23T12:14:52.584Z,7.28
2022-12-23T12:20:17.595Z,7.29
2022-12-23T12:25:26.323Z,7.29
2022-12-23T12:30:37.649Z,7.33
2022-12-23T12:35:47.629Z,7.34
2022-12-23T12:41:01.559Z,7.30
2022-12-23T12:46:10.546Z,7.29
2022-12-23T12:51:26.299Z,7.32
2022-12-23T12:56:43.920Z,7.39
2022-12-23T13:02:15.283Z,7.44
2022-12-23T13:07:30.458Z,7.44
2022-12-23T13:13:01.232Z,7.45
2022-12-23T13:18:26.364Z,7.42
2022-12-23T13:23:43.680Z,7.36
2022-12-23T13:28:51.503Z,7.33
2022-12-23T13:34:47.369Z,7.35
2022-12-23T13:39:59.939Z,7.41
2022-12-23T13:45:04.934Z,7.39
2022-12-23T13:50:26.954Z,7.37
2022-12-23T13:55:58.340Z,7.37
2022-12-23T14:01:10.530Z,7.37
2022-12-23T14:06:21.759Z,7.45
2022-12-23T14:11:30.024Z,7.48
2022-12-23T14:16:55.793Z,7.47
2022-12-23T14:22:21.080Z,7.50
2022-12-23T14:27:49.814Z,7.45
2022-12-23T14:32:59.732Z,7.45
2022-12-23T14:38:15.304Z,7.41
2022-12-23T14:43:26.736Z,7.36
2022-12-23T14:49:16.209Z,7.33
2022-12-23T14:54:38.752Z,7.34
2022-12-23T15:00:03.032Z,7.36
2022-12-23T15:05:07.129Z,7.38
2022-12-23T15:10:20.640Z,7.36
2022-12-23T15:15:30.221Z,7.36
2022-12-23T15:20:34.330Z,7.42
2022-12-23T15:25:44.721Z,7.45
2022-12-23T15:30:54.749Z,7.46
2022-12-23T15:35:58.260Z,7.46
2022-12-23T15:41:13.739Z,7.46
2022-12-23T15:46:25.126Z,7.48
2022-12-23T15:57:01.786Z,7.57
2022-12-23T16:08:31.169Z,7.60
2022-12-23T16:13:34.361Z,7.63
2022-12-23T16:18:47.203Z,7.74
2022-12-23T16:23:53.384Z,7.82
2022-12-23T16:29:00.934Z,7.83
2022-12-23T16:34:07.737Z,7.82
2022-12-23T16:39:22.831Z,7.87
2022-12-23T16:44:26.076Z,7.92
2022-12-23T16:49:33.940Z,7.93
2022-12-23T16:54:37.448Z,7.89
2022-12-23T16:59:41.341Z,7.88
2022-12-23T17:04:44.937Z,7.91
2022-12-23T17:09:48.108Z,7.98
2022-12-23T17:14:51.669Z,7.99
2022-12-23T17:19:56.537Z,7.98
2022-12-23T17:24:59.684Z,7.98
2022-12-23T17:30:03.245Z,8.04
2022-12-23T17:35:06.661Z,8.06
2022-12-23T17:40:13.316Z,8.04
2022-12-23T17:45:24.867Z,8.01
2022-12-23T17:50:28.300Z,8.02
2022-12-23T17:55:31.546Z,8.05
2022-12-23T18:00:35.357Z,8.10
2022-12-23T18:05:38.491Z,8.09
2022-12-23T18:10:41.713Z,8.08
2022-12-23T18:15:46.049Z,8.07
2022-12-23T18:20:51.813Z,8.08
2022-12-23T18:25:56.848Z,8.06
2022-12-23T18:31:00.197Z,8.03
2022-12-23T18:36:03.666Z,7.98
2022-12-23T18:41:11.668Z,7.89
2022-12-23T18:46:14.902Z,7.89
2022-12-23T18:51:21.210Z,7.86
2022-12-23T18:56:24.385Z,7.82
2022-12-23T19:01:27.605Z,7.81
2022-12-23T19:06:30.780Z,7.84
2022-12-23T19:11:34.439Z,7.83
2022-12-23T19:16:37.616Z,7.80
2022-12-23T19:21:40.798Z,7.74
2022-12-23T19:26:44.133Z,7.74
2022-12-23T19:31:47.349Z,7.69
2022-12-23T19:36:50.513Z,7.57
2022-12-23T19:41:53.775Z,7.50
2022-12-23T19:46:56.924Z,7.47
2022-12-23T19:52:01.550Z,7.43
2022-12-23T19:57:10.309Z,7.43
2022-12-23T20:02:15.641Z,7.38
2022-12-23T20:07:18.963Z,7.34
2022-12-23T20:12:22.225Z,7.33
2022-12-23T20:17:25.463Z,7.38
2022-12-23T20:22:28.589Z,7.42
2022-12-23T20:27:32.506Z,7.47
2022-12-23T20:32:35.692Z,7.45
2022-12-23T20:37:38.812Z,7.36
2022-12-23T20:42:42.003Z,7.31
2022-12-23T20:47:45.319Z,7.31
2022-12-23T20:52:48.585Z,7.31
2022-12-23T20:57:51.768Z,7.24
2022-12-23T21:02:54.947Z,7.21
2022-12-23T21:07:58.288Z,7.14
2022-12-23T21:13:04.470Z,7.14
2022-12-23T21:18:07.747Z,7.23
2022-12-23T21:23:10.955Z,7.31
2022-12-23T21:28:14.115Z,7.32
2022-12-23T21:33:17.268Z,7.32
2022-12-23T21:38:20.429Z,7.39
2022-12-23T21:43:23.760Z,7.44
2022-12-23T21:48:29.977Z,7.48
2022-12-23T21:53:37.189Z,7.45
2022-12-23T21:58:41.472Z,7.35
2022-12-23T22:03:46.310Z,7.29
2022-12-23T22:08:52.099Z,7.25
2022-12-23T22:13:59.629Z,7.31
2022-12-23T22:19:04.503Z,7.33
2022-12-23T22:24:08.306Z,7.31
2022-12-23T22:29:12.168Z,7.32
2022-12-23T22:34:18.556Z,7.35
2022-12-23T22:39:22.183Z,7.37
2022-12-23T22:44:25.597Z,7.33
2022-12-23T22:49:28.907Z,7.30
2022-12-23T22:54:32.156Z,7.28
2022-12-23T22:59:35.484Z,7.28
2022-12-23T23:04:38.733Z,7.30
2022-12-23T23:09:42.011Z,7.28
2022-12-23T23:14:54.420Z,7.23
2022-12-23T23:19:57.693Z,7.25
2022-12-23T23:25:00.805Z,7.31
2022-12-23T23:30:04.496Z,7.30
2022-12-23T23:35:10.874Z,7.29
2022-12-23T23:40:14.557Z,7.28
2022-12-23T23:45:17.766Z,7.26
2022-12-23T23:50:21.166Z,7.28
2022-12-23T23:55:24.289Z,7.25
